Main page
METAR-TAF:

METAR-TAF

Airports :

City of Derry Airport

Derry, Northern Ireland

latitude: 55-03N, longitude: 007-09W, elevation: 9 m

Current weather observation

The report was made 16 hours and 13 minutes ago, at 16:50 UTC
Wind 9 kt from the East/Northeast, varying between North/Northeast and East/Southeast
Temperature 10°C
Humidity 87%
Pressure 1025 hPa
Visibility: 8000 m
Few clouds at a height of 700 ft
Broken clouds at a height of 1200 ft

METAR: EGAE 171650Z 07009KT 020V110 8000 FEW007 BKN012 10/08 Q1025

Time: 09:03 (09:03 UTC)

Forecast

The report was made 18 hours and 59 minutes ago, at 14:04 UTC
Forecast valid from 17 at 15 UTC to 17 at 17 UTC
Wind 14 kt from the Southeast
Visibility: 7000 m
Broken clouds at a height of 800 ft
Probability 30% :
Temporary
from 17 at 15 UTC to 17 at 17 UTC
Wind 20 kt from the South/Southeast with gusts up to 30 kt
Visibility 10 km or more
Scattered clouds at a height of 800 ft

TAF: EGAE 171404Z 1715/1717 13014KT 7000 BKN008 PROB30 TEMPO 1715/1717 16020G30KT 9999 SCT008

Weather observations and forecasts of more than 4000 airports (METAR and TAF reports).

The available stations are represented by yellow and red dots on the map.

Hover mouse over dot to see the name of the station.

Then click to see weather observations and forecasts.

To change the map : click on the green buttons with a black cross to zoom in, on the green button with a dash to zoom out, or on the green arrows for adjacent maps.


METAR-TAF: